Latest Weather Observations for Troughton Island

IDD60801

Issued at 11:01 am CST Monday 2 February 2015 (issued every 30 minutes, with the page automatically refreshed every 10 minutes)

About weather observations | Map of weather stations | Latest weather observations for NT | Other Formats
Station Details ID: 001007 Name: TROUGHTON ISLAND Lat: -13.75 Lon: 126.15 Height: 6.0 m
Data from the previous 72 hours. | See also: Recent months at Troughton Island
Date/Time
CST
Temp
°C
App
Temp
°C
Dew
Point
Rel
Hum
%
Delta-T
°C
Wind Press
QNH
hPa
Press
MSL
hPa
Rain
since 9 am
mm
Dir
 
Spd
km/h
Gust
km/h
Spd
kts
Gust
kts
02/11:00am 31.9 39.1 30.0 90 1.4 SW 15 17 8 9 1010.3 - 0.0
02/10:30am 31.2 37.1 29.4 90 1.3 SW 19 22 10 12 1010.3 1010.2 0.4
02/10:00am 30.9 36.6 29.1 90 1.3 SW 19 22 10 12 1010.3 - 0.4
02/09:30am 30.4 36.2 29.5 95 0.7 SW 20 24 11 13 1010.4 - 0.4
02/09:00am 30.3 35.7 29.4 95 0.7 SW 22 26 12 14 1010.1 - 0.4
02/08:30am 29.8 35.2 29.4 98 0.3 SW 22 26 12 14 1009.9 - 0.2
02/08:00am 29.0 34.4 29.0 100 0.0 SW 20 26 11 14 1009.6 - 0.2
02/07:30am 28.8 33.3 28.3 97 0.4 SW 22 26 12 14 1009.2 1009.1 0.2
02/07:00am 28.7 32.5 27.8 95 0.7 SW 24 28 13 15 1008.9 - 0.2
02/06:30am 28.7 32.6 28.0 96 0.5 SW 24 28 13 15 1008.7 - 0.2
02/06:00am 28.7 32.6 28.5 99 0.1 SW 26 32 14 17 1008.4 - 0.2
02/05:30am 28.7 33.0 28.5 99 0.1 SW 24 28 13 15 1007.9 - 0.2
02/05:00am 28.4 - 29.6 - - WSW 20 24 11 13 1007.8 - 0.2
02/04:30am 28.5 - 29.7 - - WSW 20 22 11 12 1007.7 1007.6 0.2
02/04:00am 28.6 - 29.8 - - SSW 19 20 10 11 1008.1 - 0.2
02/03:30am 28.8 - 30.0 - - WSW 22 26 12 14 1008.2 - 0.2
02/03:00am 28.9 - 30.1 - - WSW 24 28 13 15 1008.2 - 0.2
02/02:30am 28.9 - 30.1 - - WSW 24 28 13 15 1008.7 - 0.2
02/02:00am 28.9 - 30.1 - - WSW 28 32 15 17 1008.9 - 0.2
02/01:30am 28.8 - 30.0 - - WSW 28 32 15 17 1009.5 1009.4 0.2
02/01:00am 28.7 - 29.9 - - SW 26 30 14 16 1009.8 - 0.2
02/12:30am 29.3 - 30.0 - - SW 24 28 13 15 1009.9 - 0.2
02/12:00am 29.3 - 29.8 - - SW 26 30 14 16 1010.2 - 0.2
 
Date/Time
CST
Temp
°C
App
Temp
°C
Dew
Point
Rel
Hum
%
Delta-T
°C
Wind Press
QNH
hPa
Press
MSL
hPa
Rain
since 9 am
mm
Dir
 
Spd
km/h
Gust
km/h
Spd
kts
Gust
kts
01/11:30pm 29.2 - 29.9 - - SW 26 32 14 17 1010.1 - 0.2
01/11:00pm 29.2 - 29.4 - - SW 32 37 17 20 1009.8 - 0.2
01/10:30pm 29.2 - 29.7 - - SW 32 39 17 21 1009.5 1009.4 0.2
01/10:00pm 29.3 32.1 29.3 100 0.0 WSW 35 41 19 22 1009.3 - 0.2
01/09:30pm 29.3 32.9 29.1 99 0.1 WSW 30 35 16 19 1009.4 - 0.2
01/09:00pm 29.3 33.4 29.3 100 0.0 WSW 28 33 15 18 1009.2 - 0.2
01/08:30pm 29.2 32.5 29.2 100 0.0 WSW 32 35 17 19 1008.4 - 0.2
01/08:00pm 29.2 - 29.4 - - WSW 30 33 16 18 1007.8 - 0.2
01/07:30pm 29.2 33.3 29.2 100 0.0 SW 28 35 15 19 1008.2 1008.1 0.2
01/07:00pm 29.3 33.1 28.9 98 0.3 SW 28 33 15 18 1008.1 - 0.2
01/06:30pm 29.5 32.7 29.1 98 0.3 WSW 32 37 17 20 1008.1 - 0.2
01/06:00pm 29.9 33.0 29.2 96 0.5 WSW 33 41 18 22 1007.8 - 0.2
01/05:30pm 30.5 33.8 29.4 94 0.8 WSW 33 39 18 21 1008.0 - 0.2
01/05:00pm 30.6 33.8 29.3 93 1.0 WSW 33 41 18 22 1007.4 - 0.2
01/04:30pm 30.3 32.8 29.4 95 0.7 W 37 43 20 23 1007.2 1007.1 0.2
01/04:00pm 30.3 32.6 29.2 94 0.8 WSW 37 43 20 23 1007.1 - 0.2
01/03:30pm 30.7 33.4 29.6 94 0.8 WSW 37 44 20 24 1007.3 - 0.2
01/03:00pm 30.9 33.7 29.3 91 1.2 WSW 35 43 19 23 1007.6 - 0.2
01/02:30pm 31.3 34.3 29.6 91 1.3 WSW 35 41 19 22 1008.5 - 0.2
01/02:00pm 31.5 34.6 29.7 90 1.3 WSW 35 39 19 21 1008.8 - 0.2
01/01:30pm 31.1 34.1 29.6 92 1.1 WSW 35 41 19 22 1009.3 1009.2 0.2
01/01:00pm 30.6 33.6 29.5 94 0.8 WSW 35 39 19 21 1009.7 - 0.2
01/12:30pm 30.0 34.0 29.6 98 0.3 WSW 30 37 16 20 1010.1 - 0.2
01/12:00pm 29.2 - 29.5 - - WSW 32 37 17 20 1010.5 - 0.2
01/11:30am 28.8 - 29.1 - - W 30 35 16 19 1010.5 - 0.0
01/11:00am 28.5 - 28.7 - - WSW 32 35 17 19 1010.6 - 0.0
01/10:30am 28.2 - 28.7 - - W 30 35 16 19 1010.7 1010.6 0.6
01/10:00am 28.0 30.3 27.8 99 0.1 W 32 35 17 19 1010.5 - 0.6
01/09:30am 27.1 - 28.1 - - WNW 24 30 13 16 1010.6 - 0.6
01/09:00am 26.3 - 27.5 - - WNW 28 33 15 18 1010.8 - 0.6
01/08:30am 25.4 - 26.5 - - NW 32 41 17 22 1010.7 - 0.6
01/08:00am 25.4 - 26.5 - - NW 35 41 19 22 1010.8 - 0.6
01/07:30am 25.6 - 26.7 - - NW 26 33 14 18 1010.3 1010.2 0.6
01/07:00am 25.3 - 26.4 - - NNW 19 24 10 13 1009.8 - 0.6
01/06:30am 25.1 - 26.2 - - NNE 19 24 10 13 1009.8 - 0.6
01/06:00am 24.5 - 25.6 - - ENE 19 33 10 18 1009.3 - 0.6
01/05:30am 24.4 - 25.4 - - E 39 46 21 25 1009.0 - 0.2
01/05:20am 24.8 - 25.5 - - E 39 48 21 26 1009.3 - 0.2
01/05:00am 28.2 - 28.5 - - WSW 26 33 14 18 1008.9 - 0.2
01/04:30am 27.8 - 28.3 - - WSW 33 39 18 21 1008.4 1008.3 0.2
01/04:00am 28.6 31.7 28.4 99 0.1 WSW 30 35 16 19 1008.4 - 0.0
01/03:30am 28.6 31.2 28.3 98 0.2 WSW 32 39 17 21 1008.4 - 0.0
01/03:00am 28.6 31.0 28.3 98 0.2 WSW 33 39 18 21 1008.3 - 0.0
01/02:30am 28.6 31.3 28.4 99 0.1 W 32 39 17 21 1008.3 - 0.0
01/02:00am 28.7 30.8 28.4 98 0.2 W 35 43 19 23 1008.4 - 0.0
01/01:30am 28.9 31.6 28.7 99 0.1 W 33 39 18 21 1008.7 1008.6 0.0
01/01:00am 28.9 31.6 28.7 99 0.1 W 33 39 18 21 1009.3 - 0.0
01/12:30am 28.9 31.6 28.7 99 0.1 W 33 39 18 21 1009.8 - 0.0
01/12:00am 28.9 31.4 28.4 97 0.4 W 33 37 18 20 1010.0 - 0.0
 
Date/Time
CST
Temp
°C
App
Temp
°C
Dew
Point
Rel
Hum
%
Delta-T
°C
Wind Press
QNH
hPa
Press
MSL
hPa
Rain
since 9 am
mm
Dir
 
Spd
km/h
Gust
km/h
Spd
kts
Gust
kts
31/11:30pm 28.9 31.8 28.2 96 0.5 W 30 35 16 19 1010.1 - 0.0
31/11:00pm 29.0 31.6 28.5 97 0.4 W 33 39 18 21 1009.9 - 0.0
31/10:30pm 29.0 31.7 28.7 98 0.2 W 33 37 18 20 1009.4 1009.3 0.0
31/10:00pm 29.1 32.3 28.6 97 0.4 W 30 35 16 19 1009.2 - 0.0
31/09:30pm 29.1 31.9 28.6 97 0.4 W 32 35 17 19 1009.0 - 0.0
31/09:00pm 29.1 31.6 28.2 95 0.7 W 32 35 17 19 1008.5 - 0.0
31/08:30pm 29.2 32.0 28.5 96 0.5 W 32 37 17 20 1008.2 - 0.0
31/08:00pm 29.2 32.3 28.5 96 0.5 W 30 35 16 19 1007.9 - 0.0
31/07:30pm 29.4 32.4 28.3 94 0.8 W 30 35 16 19 1007.4 1007.3 0.0
31/07:00pm 29.8 32.5 28.4 92 1.0 W 32 39 17 21 1007.1 - 0.0
31/06:30pm 30.2 33.0 28.6 91 1.2 W 32 37 17 20 1006.6 - 0.0
31/06:00pm 30.5 33.9 28.9 91 1.2 W 30 33 16 18 1006.4 - 0.0
31/05:30pm 30.8 34.2 28.8 89 1.5 WSW 30 35 16 19 1006.3 - 0.0
31/05:00pm 31.3 35.1 29.3 89 1.5 W 30 37 16 20 1006.4 - 0.0
31/04:30pm 31.3 34.5 29.1 88 1.6 W 32 37 17 20 1006.8 1006.7 0.0
31/04:00pm 32.1 36.1 30.1 89 1.5 W 32 35 17 19 1007.4 - 0.0
31/03:30pm 31.9 35.7 29.3 86 1.9 W 30 35 16 19 1007.9 - 0.0
31/03:00pm 31.8 36.7 29.8 89 1.5 W 26 35 14 19 1008.2 - 0.0
31/02:30pm 31.1 34.5 28.9 88 1.6 WSW 30 33 16 18 1008.4 - 0.0
31/02:00pm 32.1 36.9 29.7 87 1.8 WSW 26 30 14 16 1008.8 - 0.0
31/01:30pm 32.0 36.6 29.4 86 1.9 WSW 26 32 14 17 1009.1 1009.0 0.0
31/01:00pm 32.2 37.3 29.6 86 1.9 WSW 24 28 13 15 1009.3 - 0.0
31/12:30pm 31.7 37.3 29.7 89 1.5 SW 22 26 12 14 1009.7 - 0.0
31/12:00pm 31.5 36.4 29.3 88 1.6 WSW 24 30 13 16 1010.0 - 0.0
31/11:30am 31.6 37.1 29.6 89 1.5 WSW 22 28 12 15 1010.3 - 0.0
31/11:00am 30.3 36.7 29.0 93 1.0 SW 15 24 8 13 1010.4 - 0.0
31/10:30am 29.7 33.8 28.8 95 0.7 SW 26 32 14 17 1010.6 1010.5 0.0
31/10:00am 30.0 33.8 28.4 91 1.2 WSW 26 30 14 16 1010.3 - 0.0
31/09:30am 29.5 33.3 28.4 94 0.8 WSW 26 30 14 16 1010.4 - 0.0
31/09:00am 29.3 33.0 28.2 94 0.8 WSW 26 30 14 16 1010.0 - 0.0
31/08:30am 29.0 31.9 27.6 92 1.0 WSW 28 33 15 18 1009.8 - 0.0
31/07:30am 28.7 31.3 27.8 95 0.7 WSW 30 33 16 18 1009.0 1008.9 0.0
31/07:00am 28.6 31.2 27.7 95 0.7 WSW 30 33 16 18 1008.8 - 0.0
31/06:30am 28.6 31.4 27.5 94 0.8 WSW 28 33 15 18 1008.7 - 0.0
31/06:00am 28.5 31.4 27.6 95 0.7 WSW 28 32 15 17 1008.4 - 0.0
31/05:30am 28.6 31.8 28.1 97 0.4 WSW 28 33 15 18 1008.3 - 0.0
31/05:00am 28.4 32.5 28.2 99 0.1 SW 24 30 13 16 1008.1 - 0.0
31/04:30am 28.4 32.8 28.2 99 0.1 SW 22 28 12 15 1008.2 1008.1 0.0
31/04:00am 28.4 32.0 28.1 98 0.2 WSW 26 30 14 16 1008.3 - 0.0
31/03:30am 28.3 - 28.5 - - WSW 26 30 14 16 1008.3 - 0.0
31/03:00am 28.3 32.4 28.3 100 0.0 WSW 24 30 13 16 1008.4 - 0.0
31/02:30am 28.3 32.4 28.3 100 0.0 WSW 24 28 13 15 1008.3 - 0.0
31/02:00am 28.4 32.4 28.1 98 0.2 W 24 30 13 16 1008.6 - 0.0
31/01:30am 28.4 33.0 28.4 100 0.0 W 22 26 12 14 1008.7 1008.6 0.0
31/01:00am 28.4 33.0 28.4 100 0.0 W 22 26 12 14 1009.1 - 0.0
31/12:30am 28.5 32.6 28.3 99 0.1 W 24 28 13 15 1009.5 - 0.0
31/12:00am 28.7 33.3 28.4 98 0.2 WSW 22 24 12 13 1009.8 - 0.0
 
Date/Time
CST
Temp
°C
App
Temp
°C
Dew
Point
Rel
Hum
%
Delta-T
°C
Wind Press
QNH
hPa
Press
MSL
hPa
Rain
since 9 am
mm
Dir
 
Spd
km/h
Gust
km/h
Spd
kts
Gust
kts
30/11:30pm 28.7 33.1 28.2 97 0.4 WSW 22 28 12 15 1009.8 - 0.0
30/11:00pm 28.7 32.5 28.4 98 0.2 WSW 26 33 14 18 1010.0 - 0.0
30/10:30pm 28.8 32.6 28.8 100 0.0 W 28 33 15 18 1009.6 1009.5 0.0
30/10:00pm 28.7 32.4 28.7 100 0.0 W 28 32 15 17 1009.2 - 0.0
30/09:30pm 28.8 - 29.1 - - W 30 33 16 18 1008.8 - 0.0
30/09:00pm 28.9 - 29.4 - - W 26 30 14 16 1008.2 - 0.0
30/08:30pm 28.9 - 29.4 - - W 26 32 14 17 1007.8 - 0.0
30/08:00pm 28.8 - 29.3 - - W 24 28 13 15 1007.3 - 0.0
30/07:30pm 28.9 - 29.2 - - WSW 24 30 13 16 1006.7 1006.6 0.0
30/07:00pm 29.0 33.3 29.0 100 0.0 W 26 30 14 16 1006.3 - 0.0
30/06:30pm 29.9 34.6 29.5 98 0.3 W 26 32 14 17 1006.0 - 0.0
30/06:00pm 29.9 34.2 29.5 98 0.3 W 28 32 15 17 1005.9 - 0.0
30/05:30pm 30.6 35.4 30.1 97 0.4 W 28 35 15 19 1006.2 - 0.0
30/05:00pm 30.6 34.2 29.1 92 1.1 W 30 35 16 19 1006.5 - 0.0
30/04:30pm 30.8 34.3 29.0 90 1.3 W 30 37 16 20 1006.6 1006.5 0.0
30/04:00pm 31.3 35.2 30.0 93 1.0 W 32 35 17 19 1006.7 - 0.0
30/03:30pm 31.7 36.3 29.9 90 1.3 W 28 35 15 19 1006.5 - 0.0
30/03:00pm 31.2 35.2 29.6 91 1.2 W 30 35 16 19 1006.7 - 0.0
30/02:30pm 31.7 37.4 29.9 90 1.3 W 22 28 12 15 1007.1 - 0.0
30/02:00pm 32.2 38.6 30.2 89 1.5 W 20 26 11 14 1007.6 - 0.0
30/01:30pm 32.0 38.8 30.7 93 1.0 W 20 24 11 13 1008.2 1008.1 0.0
30/01:00pm 31.7 38.6 30.2 92 1.1 W 17 20 9 11 1008.6 - 0.0

Other Formats:

Comma delimited format used in spreadsheet applications
http://www.bom.gov.au/fwo/IDD60801/IDD60801.94102.axf

JavaScript Object Notation format (JSON) in row-major order
http://www.bom.gov.au/fwo/IDD60801/IDD60801.94102.json